sensor_id;sensor_type;location;lat;lon;timestamp;P1;durP1;ratioP1;P2;durP2;ratioP2
33858;SDS011;20156;47.486;12.074;2022-07-06T00:01:06;4.38;;;3.38;;
33858;SDS011;20156;47.486;12.074;2022-07-06T00:03:31;5.30;;;3.50;;
33858;SDS011;20156;47.486;12.074;2022-07-06T00:05:57;3.95;;;3.60;;
33858;SDS011;20156;47.486;12.074;2022-07-06T00:08:22;3.72;;;3.40;;
33858;SDS011;20156;47.486;12.074;2022-07-06T00:10:47;4.53;;;2.75;;
33858;SDS011;20156;47.486;12.074;2022-07-06T00:13:13;3.65;;;3.35;;
33858;SDS011;20156;47.486;12.074;2022-07-06T00:15:38;3.55;;;3.22;;
33858;SDS011;20156;47.486;12.074;2022-07-06T00:18:03;5.22;;;4.13;;
33858;SDS011;20156;47.486;12.074;2022-07-06T00:20:29;4.20;;;3.30;;
33858;SDS011;20156;47.486;12.074;2022-07-06T00:22:54;3.92;;;3.60;;
33858;SDS011;20156;47.486;12.074;2022-07-06T00:25:20;4.07;;;3.70;;
33858;SDS011;20156;47.486;12.074;2022-07-06T00:27:45;4.25;;;3.88;;
33858;SDS011;20156;47.486;12.074;2022-07-06T00:30:10;3.92;;;3.63;;
33858;SDS011;20156;47.486;12.074;2022-07-06T00:32:36;4.50;;;4.10;;
33858;SDS011;20156;47.486;12.074;2022-07-06T00:35:01;3.60;;;3.30;;
33858;SDS011;20156;47.486;12.074;2022-07-06T00:37:27;4.90;;;4.10;;
33858;SDS011;20156;47.486;12.074;2022-07-06T00:39:53;4.18;;;3.78;;
33858;SDS011;20156;47.486;12.074;2022-07-06T00:42:18;4.30;;;3.95;;
33858;SDS011;20156;47.486;12.074;2022-07-06T00:44:44;4.35;;;3.95;;
33858;SDS011;20156;47.486;12.074;2022-07-06T00:47:09;4.55;;;3.70;;
33858;SDS011;20156;47.486;12.074;2022-07-06T00:49:34;7.60;;;4.20;;
33858;SDS011;20156;47.486;12.074;2022-07-06T00:52:18;4.00;;;3.50;;
33858;SDS011;20156;47.486;12.074;2022-07-06T00:54:44;3.88;;;3.58;;
33858;SDS011;20156;47.486;12.074;2022-07-06T00:57:11;4.50;;;3.90;;
33858;SDS011;20156;47.486;12.074;2022-07-06T00:59:37;3.83;;;3.53;;
33858;SDS011;20156;47.486;12.074;2022-07-06T01:02:02;4.40;;;3.80;;
33858;SDS011;20156;47.486;12.074;2022-07-06T01:04:28;4.05;;;3.75;;
33858;SDS011;20156;47.486;12.074;2022-07-06T01:06:53;4.57;;;4.07;;
33858;SDS011;20156;47.486;12.074;2022-07-06T01:09:19;4.05;;;3.72;;
33858;SDS011;20156;47.486;12.074;2022-07-06T01:11:45;4.32;;;3.92;;
33858;SDS011;20156;47.486;12.074;2022-07-06T01:14:11;3.90;;;3.60;;
33858;SDS011;20156;47.486;12.074;2022-07-06T01:16:37;3.80;;;3.50;;
33858;SDS011;20156;47.486;12.074;2022-07-06T01:19:03;3.42;;;3.13;;
33858;SDS011;20156;47.486;12.074;2022-07-06T01:21:28;3.40;;;3.20;;
33858;SDS011;20156;47.486;12.074;2022-07-06T01:23:54;3.85;;;3.42;;
33858;SDS011;20156;47.486;12.074;2022-07-06T01:26:20;4.50;;;4.10;;
33858;SDS011;20156;47.486;12.074;2022-07-06T01:28:47;3.35;;;3.15;;
33858;SDS011;20156;47.486;12.074;2022-07-06T01:31:18;5.47;;;3.42;;
33858;SDS011;20156;47.486;12.074;2022-07-06T01:33:44;4.80;;;3.50;;
33858;SDS011;20156;47.486;12.074;2022-07-06T01:36:10;4.90;;;4.00;;
33858;SDS011;20156;47.486;12.074;2022-07-06T01:38:45;7.65;;;4.40;;
33858;SDS011;20156;47.486;12.074;2022-07-06T01:41:11;3.97;;;3.67;;
33858;SDS011;20156;47.486;12.074;2022-07-06T01:43:37;4.25;;;3.85;;
33858;SDS011;20156;47.486;12.074;2022-07-06T01:46:02;3.92;;;3.55;;
33858;SDS011;20156;47.486;12.074;2022-07-06T01:48:28;4.40;;;3.25;;
33858;SDS011;20156;47.486;12.074;2022-07-06T01:50:53;3.47;;;3.17;;
33858;SDS011;20156;47.486;12.074;2022-07-06T01:53:18;3.30;;;3.00;;
33858;SDS011;20156;47.486;12.074;2022-07-06T01:55:44;3.85;;;3.53;;
33858;SDS011;20156;47.486;12.074;2022-07-06T01:58:09;5.13;;;3.40;;
33858;SDS011;20156;47.486;12.074;2022-07-06T02:00:35;3.97;;;3.47;;
33858;SDS011;20156;47.486;12.074;2022-07-06T02:03:00;3.60;;;3.30;;
33858;SDS011;20156;47.486;12.074;2022-07-06T02:05:25;4.60;;;4.20;;
33858;SDS011;20156;47.486;12.074;2022-07-06T02:07:51;4.03;;;3.72;;
33858;SDS011;20156;47.486;12.074;2022-07-06T02:10:17;4.40;;;3.80;;
33858;SDS011;20156;47.486;12.074;2022-07-06T02:12:42;3.75;;;3.45;;
33858;SDS011;20156;47.486;12.074;2022-07-06T02:15:08;3.83;;;3.50;;
33858;SDS011;20156;47.486;12.074;2022-07-06T02:17:33;4.03;;;3.72;;
33858;SDS011;20156;47.486;12.074;2022-07-06T02:19:59;4.20;;;3.90;;
33858;SDS011;20156;47.486;12.074;2022-07-06T02:22:24;4.20;;;3.90;;
33858;SDS011;20156;47.486;12.074;2022-07-06T02:24:50;4.43;;;3.95;;
33858;SDS011;20156;47.486;12.074;2022-07-06T02:27:15;4.50;;;4.10;;
33858;SDS011;20156;47.486;12.074;2022-07-06T02:29:40;4.95;;;4.32;;
33858;SDS011;20156;47.486;12.074;2022-07-06T02:32:06;4.88;;;3.95;;
33858;SDS011;20156;47.486;12.074;2022-07-06T02:34:32;3.90;;;3.60;;
33858;SDS011;20156;47.486;12.074;2022-07-06T02:36:57;4.15;;;3.85;;
33858;SDS011;20156;47.486;12.074;2022-07-06T02:39:22;4.75;;;4.05;;
33858;SDS011;20156;47.486;12.074;2022-07-06T02:41:48;5.30;;;4.22;;
33858;SDS011;20156;47.486;12.074;2022-07-06T02:44:13;5.10;;;4.63;;
33858;SDS011;20156;47.486;12.074;2022-07-06T02:46:38;5.55;;;4.78;;
33858;SDS011;20156;47.486;12.074;2022-07-06T02:49:04;7.55;;;5.30;;
33858;SDS011;20156;47.486;12.074;2022-07-06T02:51:29;5.78;;;5.15;;
33858;SDS011;20156;47.486;12.074;2022-07-06T02:53:54;5.55;;;5.05;;
33858;SDS011;20156;47.486;12.074;2022-07-06T02:56:20;6.22;;;4.82;;
33858;SDS011;20156;47.486;12.074;2022-07-06T02:58:45;5.32;;;4.82;;
33858;SDS011;20156;47.486;12.074;2022-07-06T03:01:11;5.28;;;4.68;;
33858;SDS011;20156;47.486;12.074;2022-07-06T03:03:36;4.32;;;3.92;;
33858;SDS011;20156;47.486;12.074;2022-07-06T03:06:01;5.43;;;4.93;;
33858;SDS011;20156;47.486;12.074;2022-07-06T03:08:27;5.22;;;4.53;;
33858;SDS011;20156;47.486;12.074;2022-07-06T03:10:52;5.15;;;4.65;;
33858;SDS011;20156;47.486;12.074;2022-07-06T03:13:17;5.07;;;4.60;;
33858;SDS011;20156;47.486;12.074;2022-07-06T03:15:43;5.15;;;4.70;;
33858;SDS011;20156;47.486;12.074;2022-07-06T03:18:08;5.50;;;5.10;;
33858;SDS011;20156;47.486;12.074;2022-07-06T03:20:34;5.45;;;4.95;;
33858;SDS011;20156;47.486;12.074;2022-07-06T03:22:59;5.35;;;4.90;;
33858;SDS011;20156;47.486;12.074;2022-07-06T03:25:25;4.43;;;3.88;;
33858;SDS011;20156;47.486;12.074;2022-07-06T03:27:50;4.53;;;4.20;;
33858;SDS011;20156;47.486;12.074;2022-07-06T03:30:15;5.13;;;4.63;;
33858;SDS011;20156;47.486;12.074;2022-07-06T03:32:41;4.72;;;4.30;;
33858;SDS011;20156;47.486;12.074;2022-07-06T03:35:06;5.75;;;5.15;;
33858;SDS011;20156;47.486;12.074;2022-07-06T03:37:32;4.88;;;4.40;;
33858;SDS011;20156;47.486;12.074;2022-07-06T03:39:57;4.78;;;4.38;;
33858;SDS011;20156;47.486;12.074;2022-07-06T03:42:23;4.18;;;3.78;;
33858;SDS011;20156;47.486;12.074;2022-07-06T03:44:48;4.40;;;4.00;;
33858;SDS011;20156;47.486;12.074;2022-07-06T03:47:13;4.55;;;4.15;;
33858;SDS011;20156;47.486;12.074;2022-07-06T03:49:39;4.30;;;3.95;;
33858;SDS011;20156;47.486;12.074;2022-07-06T03:52:04;4.63;;;4.22;;
33858;SDS011;20156;47.486;12.074;2022-07-06T03:54:30;4.10;;;3.80;;
33858;SDS011;20156;47.486;12.074;2022-07-06T03:56:55;4.70;;;4.20;;
33858;SDS011;20156;47.486;12.074;2022-07-06T03:59:21;5.45;;;4.35;;
33858;SDS011;20156;47.486;12.074;2022-07-06T04:01:46;5.15;;;4.65;;
33858;SDS011;20156;47.486;12.074;2022-07-06T04:04:12;5.47;;;4.95;;
33858;SDS011;20156;47.486;12.074;2022-07-06T04:06:37;4.63;;;4.22;;
33858;SDS011;20156;47.486;12.074;2022-07-06T04:09:03;4.38;;;4.07;;
33858;SDS011;20156;47.486;12.074;2022-07-06T04:11:29;4.47;;;4.07;;
33858;SDS011;20156;47.486;12.074;2022-07-06T04:13:54;4.57;;;3.72;;
33858;SDS011;20156;47.486;12.074;2022-07-06T04:16:20;4.32;;;3.90;;
33858;SDS011;20156;47.486;12.074;2022-07-06T04:18:45;4.57;;;4.18;;
33858;SDS011;20156;47.486;12.074;2022-07-06T04:21:11;4.00;;;3.70;;
33858;SDS011;20156;47.486;12.074;2022-07-06T04:23:36;4.28;;;3.97;;
33858;SDS011;20156;47.486;12.074;2022-07-06T04:26:02;4.10;;;3.70;;
33858;SDS011;20156;47.486;12.074;2022-07-06T04:28:27;4.30;;;3.90;;
33858;SDS011;20156;47.486;12.074;2022-07-06T04:30:53;3.83;;;3.42;;
33858;SDS011;20156;47.486;12.074;2022-07-06T04:33:18;4.72;;;3.90;;
33858;SDS011;20156;47.486;12.074;2022-07-06T04:35:44;3.67;;;3.38;;
33858;SDS011;20156;47.486;12.074;2022-07-06T04:38:09;4.45;;;4.05;;
33858;SDS011;20156;47.486;12.074;2022-07-06T04:40:35;4.30;;;3.97;;
33858;SDS011;20156;47.486;12.074;2022-07-06T04:43:00;4.70;;;4.28;;
33858;SDS011;20156;47.486;12.074;2022-07-06T04:45:26;5.00;;;3.70;;
33858;SDS011;20156;47.486;12.074;2022-07-06T04:47:51;3.95;;;3.63;;
33858;SDS011;20156;47.486;12.074;2022-07-06T04:50:17;3.80;;;3.50;;
33858;SDS011;20156;47.486;12.074;2022-07-06T04:52:42;4.18;;;3.83;;
33858;SDS011;20156;47.486;12.074;2022-07-06T04:55:08;4.35;;;3.60;;
33858;SDS011;20156;47.486;12.074;2022-07-06T04:57:35;3.55;;;3.22;;
33858;SDS011;20156;47.486;12.074;2022-07-06T05:00:00;4.05;;;3.30;;
33858;SDS011;20156;47.486;12.074;2022-07-06T05:02:26;3.45;;;3.10;;
33858;SDS011;20156;47.486;12.074;2022-07-06T05:04:52;3.35;;;3.05;;
33858;SDS011;20156;47.486;12.074;2022-07-06T05:07:17;3.42;;;3.13;;
33858;SDS011;20156;47.486;12.074;2022-07-06T05:09:43;4.45;;;4.05;;
33858;SDS011;20156;47.486;12.074;2022-07-06T05:12:08;4.43;;;4.03;;
33858;SDS011;20156;47.486;12.074;2022-07-06T05:14:34;4.80;;;3.85;;
33858;SDS011;20156;47.486;12.074;2022-07-06T05:17:01;4.75;;;4.22;;
33858;SDS011;20156;47.486;12.074;2022-07-06T05:19:27;3.92;;;3.63;;
33858;SDS011;20156;47.486;12.074;2022-07-06T05:21:52;4.28;;;3.88;;
33858;SDS011;20156;47.486;12.074;2022-07-06T05:24:18;4.82;;;3.92;;
33858;SDS011;20156;47.486;12.074;2022-07-06T05:26:44;4.60;;;3.58;;
33858;SDS011;20156;47.486;12.074;2022-07-06T05:29:09;3.88;;;3.58;;
33858;SDS011;20156;47.486;12.074;2022-07-06T05:31:35;4.72;;;3.30;;
33858;SDS011;20156;47.486;12.074;2022-07-06T05:34:00;4.05;;;3.65;;
33858;SDS011;20156;47.486;12.074;2022-07-06T05:36:26;4.82;;;3.95;;
33858;SDS011;20156;47.486;12.074;2022-07-06T05:38:51;6.75;;;6.05;;
33858;SDS011;20156;47.486;12.074;2022-07-06T05:41:16;7.93;;;6.50;;
33858;SDS011;20156;47.486;12.074;2022-07-06T05:43:42;4.25;;;3.38;;
33858;SDS011;20156;47.486;12.074;2022-07-06T05:46:07;6.05;;;3.75;;
33858;SDS011;20156;47.486;12.074;2022-07-06T05:48:33;15.00;;;11.23;;
33858;SDS011;20156;47.486;12.074;2022-07-06T05:51:16;20.55;;;15.15;;
33858;SDS011;20156;47.486;12.074;2022-07-06T05:53:42;12.20;;;9.30;;
33858;SDS011;20156;47.486;12.074;2022-07-06T05:56:08;7.68;;;5.85;;
33858;SDS011;20156;47.486;12.074;2022-07-06T05:58:33;6.57;;;4.43;;
33858;SDS011;20156;47.486;12.074;2022-07-06T06:00:59;5.90;;;5.30;;
33858;SDS011;20156;47.486;12.074;2022-07-06T06:03:25;6.82;;;5.75;;
33858;SDS011;20156;47.486;12.074;2022-07-06T06:05:50;4.22;;;3.58;;
33858;SDS011;20156;47.486;12.074;2022-07-06T06:08:16;4.07;;;3.70;;
33858;SDS011;20156;47.486;12.074;2022-07-06T06:10:41;6.18;;;3.67;;
33858;SDS011;20156;47.486;12.074;2022-07-06T06:13:07;5.93;;;4.72;;
33858;SDS011;20156;47.486;12.074;2022-07-06T06:15:32;4.65;;;3.22;;
33858;SDS011;20156;47.486;12.074;2022-07-06T06:17:58;4.45;;;3.60;;
33858;SDS011;20156;47.486;12.074;2022-07-06T06:20:23;4.38;;;3.70;;
33858;SDS011;20156;47.486;12.074;2022-07-06T06:22:49;3.85;;;3.55;;
33858;SDS011;20156;47.486;12.074;2022-07-06T06:25:21;5.22;;;4.53;;
33858;SDS011;20156;47.486;12.074;2022-07-06T06:27:53;5.35;;;4.22;;
33858;SDS011;20156;47.486;12.074;2022-07-06T06:30:19;4.95;;;4.50;;
33858;SDS011;20156;47.486;12.074;2022-07-06T06:32:44;4.82;;;4.32;;
33858;SDS011;20156;47.486;12.074;2022-07-06T06:35:10;4.32;;;3.72;;
33858;SDS011;20156;47.486;12.074;2022-07-06T06:37:36;4.15;;;3.40;;
33858;SDS011;20156;47.486;12.074;2022-07-06T06:40:02;3.65;;;3.35;;
33858;SDS011;20156;47.486;12.074;2022-07-06T06:42:29;3.78;;;3.40;;
33858;SDS011;20156;47.486;12.074;2022-07-06T06:44:54;3.58;;;3.28;;
33858;SDS011;20156;47.486;12.074;2022-07-06T06:47:20;3.38;;;3.08;;
33858;SDS011;20156;47.486;12.074;2022-07-06T06:49:45;4.93;;;3.28;;
33858;SDS011;20156;47.486;12.074;2022-07-06T06:52:11;3.90;;;3.47;;
33858;SDS011;20156;47.486;12.074;2022-07-06T06:54:36;4.15;;;3.15;;
33858;SDS011;20156;47.486;12.074;2022-07-06T06:57:02;3.22;;;2.92;;
33858;SDS011;20156;47.486;12.074;2022-07-06T06:59:27;3.22;;;2.92;;
33858;SDS011;20156;47.486;12.074;2022-07-06T07:01:53;3.00;;;2.80;;
33858;SDS011;20156;47.486;12.074;2022-07-06T07:04:18;3.85;;;2.90;;
33858;SDS011;20156;47.486;12.074;2022-07-06T07:06:43;3.40;;;3.10;;
33858;SDS011;20156;47.486;12.074;2022-07-06T07:09:09;4.78;;;3.05;;
33858;SDS011;20156;47.486;12.074;2022-07-06T07:11:34;4.20;;;3.25;;
33858;SDS011;20156;47.486;12.074;2022-07-06T07:14:00;6.53;;;3.67;;
33858;SDS011;20156;47.486;12.074;2022-07-06T07:16:26;3.95;;;3.58;;
33858;SDS011;20156;47.486;12.074;2022-07-06T07:18:51;5.38;;;3.53;;
33858;SDS011;20156;47.486;12.074;2022-07-06T07:21:17;3.70;;;3.40;;
33858;SDS011;20156;47.486;12.074;2022-07-06T07:23:43;4.40;;;3.45;;
33858;SDS011;20156;47.486;12.074;2022-07-06T07:26:08;4.13;;;3.40;;
33858;SDS011;20156;47.486;12.074;2022-07-06T07:28:34;7.00;;;5.57;;
33858;SDS011;20156;47.486;12.074;2022-07-06T07:30:59;6.60;;;5.20;;
33858;SDS011;20156;47.486;12.074;2022-07-06T07:33:25;5.68;;;3.45;;
33858;SDS011;20156;47.486;12.074;2022-07-06T07:35:50;5.47;;;4.30;;
33858;SDS011;20156;47.486;12.074;2022-07-06T07:38:16;5.07;;;3.75;;
33858;SDS011;20156;47.486;12.074;2022-07-06T07:40:41;4.78;;;3.15;;
33858;SDS011;20156;47.486;12.074;2022-07-06T07:43:06;3.42;;;3.13;;
33858;SDS011;20156;47.486;12.074;2022-07-06T07:45:32;3.05;;;2.83;;
33858;SDS011;20156;47.486;12.074;2022-07-06T07:47:57;4.93;;;2.80;;
33858;SDS011;20156;47.486;12.074;2022-07-06T07:50:23;1.95;;;1.85;;
33858;SDS011;20156;47.486;12.074;2022-07-06T07:52:48;2.40;;;2.20;;
33858;SDS011;20156;47.486;12.074;2022-07-06T07:55:14;2.25;;;2.08;;
33858;SDS011;20156;47.486;12.074;2022-07-06T07:57:39;2.28;;;2.08;;
33858;SDS011;20156;47.486;12.074;2022-07-06T08:00:05;3.72;;;2.42;;
33858;SDS011;20156;47.486;12.074;2022-07-06T08:02:31;2.85;;;2.50;;
33858;SDS011;20156;47.486;12.074;2022-07-06T08:04:56;2.60;;;2.40;;
33858;SDS011;20156;47.486;12.074;2022-07-06T08:07:22;2.67;;;2.40;;
33858;SDS011;20156;47.486;12.074;2022-07-06T08:09:47;2.30;;;2.10;;
33858;SDS011;20156;47.486;12.074;2022-07-06T08:12:12;5.55;;;2.30;;
33858;SDS011;20156;47.486;12.074;2022-07-06T08:14:38;2.40;;;2.20;;
33858;SDS011;20156;47.486;12.074;2022-07-06T08:17:03;3.10;;;2.80;;
33858;SDS011;20156;47.486;12.074;2022-07-06T08:19:29;2.80;;;2.50;;
33858;SDS011;20156;47.486;12.074;2022-07-06T08:21:56;2.85;;;2.42;;
33858;SDS011;20156;47.486;12.074;2022-07-06T08:24:21;3.85;;;2.95;;
33858;SDS011;20156;47.486;12.074;2022-07-06T08:26:47;2.95;;;2.53;;
33858;SDS011;20156;47.486;12.074;2022-07-06T08:29:13;3.22;;;2.20;;
33858;SDS011;20156;47.486;12.074;2022-07-06T08:31:38;2.38;;;2.17;;
33858;SDS011;20156;47.486;12.074;2022-07-06T08:34:04;1.92;;;1.75;;
33858;SDS011;20156;47.486;12.074;2022-07-06T08:36:29;2.95;;;2.03;;
33858;SDS011;20156;47.486;12.074;2022-07-06T08:38:55;4.90;;;3.65;;
33858;SDS011;20156;47.486;12.074;2022-07-06T08:41:21;6.75;;;5.72;;
33858;SDS011;20156;47.486;12.074;2022-07-06T08:43:48;5.40;;;3.38;;
33858;SDS011;20156;47.486;12.074;2022-07-06T08:46:15;5.90;;;5.05;;
33858;SDS011;20156;47.486;12.074;2022-07-06T08:48:41;2.40;;;2.08;;
33858;SDS011;20156;47.486;12.074;2022-07-06T08:51:07;1.88;;;1.77;;
33858;SDS011;20156;47.486;12.074;2022-07-06T08:53:33;1.98;;;1.88;;
33858;SDS011;20156;47.486;12.074;2022-07-06T08:55:59;1.83;;;1.73;;
33858;SDS011;20156;47.486;12.074;2022-07-06T08:58:26;1.75;;;1.65;;
33858;SDS011;20156;47.486;12.074;2022-07-06T09:00:54;1.40;;;1.30;;
33858;SDS011;20156;47.486;12.074;2022-07-06T09:03:19;1.70;;;1.60;;
33858;SDS011;20156;47.486;12.074;2022-07-06T09:05:46;1.88;;;1.70;;
33858;SDS011;20156;47.486;12.074;2022-07-06T09:08:12;2.55;;;1.67;;
33858;SDS011;20156;47.486;12.074;2022-07-06T09:10:38;1.90;;;1.80;;
33858;SDS011;20156;47.486;12.074;2022-07-06T09:13:04;2.10;;;1.90;;
33858;SDS011;20156;47.486;12.074;2022-07-06T09:15:31;1.60;;;1.50;;
33858;SDS011;20156;47.486;12.074;2022-07-06T09:17:58;2.20;;;1.73;;
33858;SDS011;20156;47.486;12.074;2022-07-06T09:20:23;3.08;;;1.70;;
33858;SDS011;20156;47.486;12.074;2022-07-06T09:22:49;3.17;;;2.50;;
33858;SDS011;20156;47.486;12.074;2022-07-06T09:25:15;1.50;;;1.40;;
33858;SDS011;20156;47.486;12.074;2022-07-06T09:27:44;1.30;;;1.20;;
33858;SDS011;20156;47.486;12.074;2022-07-06T09:30:13;1.55;;;1.40;;
33858;SDS011;20156;47.486;12.074;2022-07-06T09:32:45;1.92;;;1.73;;
33858;SDS011;20156;47.486;12.074;2022-07-06T09:35:29;1.60;;;1.50;;
33858;SDS011;20156;47.486;12.074;2022-07-06T09:38:03;1.50;;;1.40;;
33858;SDS011;20156;47.486;12.074;2022-07-06T09:40:36;2.90;;;1.65;;
33858;SDS011;20156;47.486;12.074;2022-07-06T09:45:35;2.78;;;2.30;;
33858;SDS011;20156;47.486;12.074;2022-07-06T09:48:05;2.92;;;2.45;;
33858;SDS011;20156;47.486;12.074;2022-07-06T09:50:42;2.50;;;2.30;;
33858;SDS011;20156;47.486;12.074;2022-07-06T09:53:08;2.35;;;2.17;;
33858;SDS011;20156;47.486;12.074;2022-07-06T09:55:35;1.70;;;1.60;;
33858;SDS011;20156;47.486;12.074;2022-07-06T09:58:00;2.00;;;1.80;;
33858;SDS011;20156;47.486;12.074;2022-07-06T10:00:26;2.38;;;2.15;;
33858;SDS011;20156;47.486;12.074;2022-07-06T10:02:51;2.47;;;1.58;;
33858;SDS011;20156;47.486;12.074;2022-07-06T10:05:18;2.35;;;1.80;;
33858;SDS011;20156;47.486;12.074;2022-07-06T10:07:46;2.50;;;2.00;;
33858;SDS011;20156;47.486;12.074;2022-07-06T10:10:15;1.95;;;1.80;;
33858;SDS011;20156;47.486;12.074;2022-07-06T10:12:42;1.90;;;1.80;;
33858;SDS011;20156;47.486;12.074;2022-07-06T10:15:13;2.10;;;1.90;;
33858;SDS011;20156;47.486;12.074;2022-07-06T10:17:41;2.13;;;1.92;;
33858;SDS011;20156;47.486;12.074;2022-07-06T10:20:07;1.80;;;1.60;;
33858;SDS011;20156;47.486;12.074;2022-07-06T10:22:34;3.47;;;1.67;;
33858;SDS011;20156;47.486;12.074;2022-07-06T10:25:00;2.67;;;1.60;;
33858;SDS011;20156;47.486;12.074;2022-07-06T10:27:27;1.80;;;1.60;;
33858;SDS011;20156;47.486;12.074;2022-07-06T10:29:53;2.63;;;2.13;;
33858;SDS011;20156;47.486;12.074;2022-07-06T10:32:19;8.88;;;5.20;;
33858;SDS011;20156;47.486;12.074;2022-07-06T10:34:45;8.55;;;5.78;;
33858;SDS011;20156;47.486;12.074;2022-07-06T10:37:24;1.50;;;1.40;;
33858;SDS011;20156;47.486;12.074;2022-07-06T10:39:51;2.08;;;1.65;;
33858;SDS011;20156;47.486;12.074;2022-07-06T10:45:15;1.55;;;1.45;;
33858;SDS011;20156;47.486;12.074;2022-07-06T10:50:37;2.25;;;1.80;;
33858;SDS011;20156;47.486;12.074;2022-07-06T10:53:11;1.30;;;1.20;;
33858;SDS011;20156;47.486;12.074;2022-07-06T10:55:38;1.80;;;1.70;;
33858;SDS011;20156;47.486;12.074;2022-07-06T10:58:05;2.25;;;1.60;;
33858;SDS011;20156;47.486;12.074;2022-07-06T11:06:01;1.70;;;1.60;;
33858;SDS011;20156;47.486;12.074;2022-07-06T11:11:20;1.50;;;1.40;;
33858;SDS011;20156;47.486;12.074;2022-07-06T11:13:50;2.97;;;1.77;;
33858;SDS011;20156;47.486;12.074;2022-07-06T11:19:13;1.70;;;1.52;;
33858;SDS011;20156;47.486;12.074;2022-07-06T11:21:43;1.50;;;1.40;;
33858;SDS011;20156;47.486;12.074;2022-07-06T11:24:17;1.50;;;1.40;;
33858;SDS011;20156;47.486;12.074;2022-07-06T11:26:45;1.42;;;1.33;;
33858;SDS011;20156;47.486;12.074;2022-07-06T11:29:12;1.75;;;1.50;;
33858;SDS011;20156;47.486;12.074;2022-07-06T11:31:42;1.60;;;1.50;;
33858;SDS011;20156;47.486;12.074;2022-07-06T11:34:10;1.55;;;1.45;;
33858;SDS011;20156;47.486;12.074;2022-07-06T11:36:39;1.50;;;1.40;;
33858;SDS011;20156;47.486;12.074;2022-07-06T11:39:05;1.67;;;1.58;;
33858;SDS011;20156;47.486;12.074;2022-07-06T11:41:31;1.90;;;1.50;;
33858;SDS011;20156;47.486;12.074;2022-07-06T11:43:56;1.52;;;1.42;;
33858;SDS011;20156;47.486;12.074;2022-07-06T11:46:29;2.05;;;1.30;;
33858;SDS011;20156;47.486;12.074;2022-07-06T11:48:56;2.05;;;1.50;;
33858;SDS011;20156;47.486;12.074;2022-07-06T11:51:24;1.50;;;1.40;;
33858;SDS011;20156;47.486;12.074;2022-07-06T11:53:53;1.67;;;1.40;;
33858;SDS011;20156;47.486;12.074;2022-07-06T11:56:20;1.60;;;1.50;;
33858;SDS011;20156;47.486;12.074;2022-07-06T11:58:50;1.85;;;1.50;;
33858;SDS011;20156;47.486;12.074;2022-07-06T12:01:17;1.88;;;1.45;;
33858;SDS011;20156;47.486;12.074;2022-07-06T12:03:43;1.52;;;1.42;;
33858;SDS011;20156;47.486;12.074;2022-07-06T12:08:45;1.98;;;1.48;;
33858;SDS011;20156;47.486;12.074;2022-07-06T12:11:22;2.10;;;1.50;;
33858;SDS011;20156;47.486;12.074;2022-07-06T12:13:53;1.63;;;1.50;;
33858;SDS011;20156;47.486;12.074;2022-07-06T12:16:21;1.73;;;1.63;;
33858;SDS011;20156;47.486;12.074;2022-07-06T12:18:49;1.50;;;1.40;;
33858;SDS011;20156;47.486;12.074;2022-07-06T12:21:18;1.52;;;1.42;;
33858;SDS011;20156;47.486;12.074;2022-07-06T12:23:47;1.50;;;1.40;;
33858;SDS011;20156;47.486;12.074;2022-07-06T12:26:15;3.05;;;1.60;;
33858;SDS011;20156;47.486;12.074;2022-07-06T12:28:42;1.55;;;1.45;;
33858;SDS011;20156;47.486;12.074;2022-07-06T12:31:09;1.63;;;1.50;;
33858;SDS011;20156;47.486;12.074;2022-07-06T12:33:35;1.70;;;1.60;;
33858;SDS011;20156;47.486;12.074;2022-07-06T12:36:11;1.50;;;1.40;;
33858;SDS011;20156;47.486;12.074;2022-07-06T12:38:47;2.17;;;1.42;;
33858;SDS011;20156;47.486;12.074;2022-07-06T12:41:32;3.10;;;1.70;;
33858;SDS011;20156;47.486;12.074;2022-07-06T12:44:00;1.65;;;1.55;;
33858;SDS011;20156;47.486;12.074;2022-07-06T12:46:31;3.22;;;1.48;;
33858;SDS011;20156;47.486;12.074;2022-07-06T12:49:01;1.52;;;1.42;;
33858;SDS011;20156;47.486;12.074;2022-07-06T12:51:28;1.45;;;1.35;;
33858;SDS011;20156;47.486;12.074;2022-07-06T12:54:13;1.52;;;1.40;;
33858;SDS011;20156;47.486;12.074;2022-07-06T12:56:55;2.03;;;1.60;;
33858;SDS011;20156;47.486;12.074;2022-07-06T12:59:32;1.27;;;1.23;;
33858;SDS011;20156;47.486;12.074;2022-07-06T13:01:59;1.90;;;1.80;;
33858;SDS011;20156;47.486;12.074;2022-07-06T13:04:26;1.45;;;1.33;;
33858;SDS011;20156;47.486;12.074;2022-07-06T13:06:53;1.35;;;1.20;;
33858;SDS011;20156;47.486;12.074;2022-07-06T13:09:19;1.65;;;1.52;;
33858;SDS011;20156;47.486;12.074;2022-07-06T13:11:46;1.70;;;1.60;;
33858;SDS011;20156;47.486;12.074;2022-07-06T13:14:13;2.08;;;1.52;;
33858;SDS011;20156;47.486;12.074;2022-07-06T13:16:42;1.83;;;1.50;;
33858;SDS011;20156;47.486;12.074;2022-07-06T13:19:08;2.00;;;1.83;;
33858;SDS011;20156;47.486;12.074;2022-07-06T13:21:34;1.63;;;1.40;;
33858;SDS011;20156;47.486;12.074;2022-07-06T13:24:00;3.08;;;1.55;;
33858;SDS011;20156;47.486;12.074;2022-07-06T13:26:26;1.60;;;1.50;;
33858;SDS011;20156;47.486;12.074;2022-07-06T13:28:51;1.75;;;1.65;;
33858;SDS011;20156;47.486;12.074;2022-07-06T13:31:17;1.80;;;1.65;;
33858;SDS011;20156;47.486;12.074;2022-07-06T13:33:42;2.72;;;1.58;;
33858;SDS011;20156;47.486;12.074;2022-07-06T13:36:08;1.45;;;1.35;;
33858;SDS011;20156;47.486;12.074;2022-07-06T13:38:33;1.75;;;1.65;;
33858;SDS011;20156;47.486;12.074;2022-07-06T13:41:02;1.85;;;1.48;;
33858;SDS011;20156;47.486;12.074;2022-07-06T13:43:27;1.52;;;1.42;;
33858;SDS011;20156;47.486;12.074;2022-07-06T13:46:01;2.78;;;1.70;;
33858;SDS011;20156;47.486;12.074;2022-07-06T13:48:31;1.42;;;1.30;;
33858;SDS011;20156;47.486;12.074;2022-07-06T13:50:57;1.60;;;1.30;;
33858;SDS011;20156;47.486;12.074;2022-07-06T13:53:25;1.42;;;1.33;;
33858;SDS011;20156;47.486;12.074;2022-07-06T13:55:50;1.55;;;1.45;;
33858;SDS011;20156;47.486;12.074;2022-07-06T13:58:16;1.40;;;1.30;;
33858;SDS011;20156;47.486;12.074;2022-07-06T14:00:42;1.83;;;1.50;;
33858;SDS011;20156;47.486;12.074;2022-07-06T14:03:07;2.15;;;1.60;;
33858;SDS011;20156;47.486;12.074;2022-07-06T14:05:33;1.58;;;1.48;;
33858;SDS011;20156;47.486;12.074;2022-07-06T14:07:59;1.55;;;1.45;;
33858;SDS011;20156;47.486;12.074;2022-07-06T14:10:25;1.83;;;1.67;;
33858;SDS011;20156;47.486;12.074;2022-07-06T14:12:51;1.60;;;1.50;;
33858;SDS011;20156;47.486;12.074;2022-07-06T14:15:17;2.17;;;1.63;;
33858;SDS011;20156;47.486;12.074;2022-07-06T14:17:43;2.58;;;1.58;;
33858;SDS011;20156;47.486;12.074;2022-07-06T14:20:09;4.55;;;1.90;;
33858;SDS011;20156;47.486;12.074;2022-07-06T14:22:36;1.80;;;1.70;;
33858;SDS011;20156;47.486;12.074;2022-07-06T14:25:02;2.35;;;1.50;;
33858;SDS011;20156;47.486;12.074;2022-07-06T14:27:30;1.85;;;1.75;;
33858;SDS011;20156;47.486;12.074;2022-07-06T14:29:55;1.77;;;1.40;;
33858;SDS011;20156;47.486;12.074;2022-07-06T14:32:21;2.65;;;1.40;;
33858;SDS011;20156;47.486;12.074;2022-07-06T14:34:46;1.60;;;1.50;;
33858;SDS011;20156;47.486;12.074;2022-07-06T14:37:12;1.60;;;1.50;;
33858;SDS011;20156;47.486;12.074;2022-07-06T14:39:37;1.45;;;1.35;;
33858;SDS011;20156;47.486;12.074;2022-07-06T14:42:03;2.45;;;1.60;;
33858;SDS011;20156;47.486;12.074;2022-07-06T14:44:28;2.47;;;1.80;;
33858;SDS011;20156;47.486;12.074;2022-07-06T14:46:54;1.65;;;1.52;;
33858;SDS011;20156;47.486;12.074;2022-07-06T14:49:19;1.83;;;1.40;;
33858;SDS011;20156;47.486;12.074;2022-07-06T14:51:44;1.60;;;1.50;;